Time;durP1;ratioP1;P1;durP2;ratioP2;P2;SDS_P1;SDS_P2;PMS_P1;PMS_P2;Temp;Humidity;BMP_temperature;BMP_pressure;BME280_temperature;BME280_humidity;BME280_pressure;Samples;Min_cycle;Max_cycle;Signal;HPM_P1;HPM_P2
2021/03/31 00:02:39;;;;;;;29.90;19.48;;;;;;;12.26;64.99;101341.39;2910064;81;21558;-60
2021/03/31 00:06:41;;;;;;;27.42;18.67;;;;;;;12.20;65.22;101341.84;2909883;81;21123;-59
2021/03/31 00:10:49;;;;;;;27.58;19.80;;;;;;;12.13;65.86;101347.59;2910155;81;21119;-58
2021/03/31 00:14:52;;;;;;;42.95;19.95;;;;;;;12.06;65.92;101339.67;2907475;81;21119;-60
2021/03/31 00:18:55;;;;;;;27.17;18.87;;;;;;;12.08;66.04;101340.41;2961496;80;21151;-59
2021/03/31 00:22:58;;;;;;;29.20;18.60;;;;;;;11.97;66.28;101331.81;2961505;80;21539;-60
2021/03/31 00:27:04;;;;;;;39.92;20.70;;;;;;;11.93;66.52;101330.80;2961705;80;21158;-59
2021/03/31 00:31:10;;;;;;;25.88;19.50;;;;;;;11.94;66.27;101331.17;2913070;80;21631;-59
2021/03/31 00:35:14;;;;;;;24.05;17.82;;;;;;;11.93;65.96;101328.14;2835880;84;21149;-60
2021/03/31 00:39:19;;;;;;;30.97;20.17;;;;;;;11.91;65.86;101328.27;2835757;84;21163;-59
2021/03/31 00:43:23;;;;;;;30.40;20.30;;;;;;;11.90;65.69;101323.89;2851343;82;21116;-58
2021/03/31 00:47:26;;;;;;;24.57;16.90;;;;;;;11.89;65.49;101323.98;2850929;83;21128;-58
2021/03/31 00:51:29;;;;;;;26.95;19.02;;;;;;;11.85;65.71;101316.21;2850752;83;21124;-59
2021/03/31 00:55:35;;;;;;;29.55;18.87;;;;;;;11.83;65.81;101310.61;2825962;83;21097;-58
2021/03/31 00:59:40;;;;;;;34.23;21.40;;;;;;;11.81;66.04;101305.41;2850705;83;21128;-60
2021/03/31 01:03:44;;;;;;;24.47;19.55;;;;;;;11.81;66.06;101308.06;2850952;83;21141;-59
2021/03/31 01:07:48;;;;;;;33.42;19.73;;;;;;;11.81;66.13;101306.73;2824870;83;21148;-60
2021/03/31 01:12:18;;;;;;;30.30;20.75;;;;;;;11.72;66.15;101304.70;2850795;83;21133;-60
2021/03/31 01:16:45;;;;;;;28.20;18.35;;;;;;;11.67;66.25;101306.84;2851075;82;21105;-59
2021/03/31 01:21:25;;;;;;;26.37;17.65;;;;;;;11.65;66.36;101298.95;2850988;83;21112;-58
2021/03/31 01:25:33;;;;;;;23.70;16.65;;;;;;;11.62;66.36;101292.50;2850664;82;21756;-58
2021/03/31 01:30:32;;;;;;;31.02;18.37;;;;;;;11.58;66.77;101290.52;2850825;82;21128;-58
2021/03/31 01:34:55;;;;;;;25.97;18.67;;;;;;;11.58;66.75;101291.86;2905662;81;21561;-58
2021/03/31 01:39:03;;;;;;;31.55;22.82;;;;;;;11.55;66.66;101281.42;2909513;81;21531;-58
2021/03/31 01:43:11;;;;;;;30.27;19.07;;;;;;;11.53;66.89;101287.34;2909007;81;21525;-58
2021/03/31 01:47:14;;;;;;;30.23;20.60;;;;;;;11.50;66.82;101277.40;2908885;81;21130;-61
2021/03/31 01:51:19;;;;;;;30.00;21.87;;;;;;;11.50;66.82;101275.57;2909038;81;21153;-59
2021/03/31 01:55:24;;;;;;;26.30;18.20;;;;;;;11.47;66.83;101279.79;2879528;81;21115;-59
2021/03/31 01:59:28;;;;;;;29.20;17.20;;;;;;;11.43;66.87;101274.30;2909273;81;21139;-58
2021/03/31 02:03:32;;;;;;;30.15;19.25;;;;;;;11.43;67.05;101274.30;2908988;81;21178;-59
2021/03/31 02:07:35;;;;;;;24.70;18.87;;;;;;;11.43;67.28;101272.98;2909046;81;21115;-59
2021/03/31 02:11:40;;;;;;;30.62;20.37;;;;;;;11.25;67.56;101275.95;2909019;81;21130;-59
2021/03/31 02:15:48;;;;;;;31.15;19.80;;;;;;;11.04;68.09;101268.11;2909089;81;21167;-58
2021/03/31 02:19:52;;;;;;;31.70;20.37;;;;;;;10.91;68.63;101256.95;2909082;81;21505;-58
2021/03/31 02:23:57;;;;;;;24.80;16.17;;;;;;;10.91;68.61;101251.63;2908911;81;21127;-58
2021/03/31 02:28:01;;;;;;;26.27;17.00;;;;;;;10.87;69.02;101251.47;2908764;81;21114;-58
2021/03/31 02:32:07;;;;;;;29.30;19.45;;;;;;;10.92;69.27;101253.83;2908791;81;21162;-59
2021/03/31 02:36:14;;;;;;;30.12;18.35;;;;;;;10.97;68.94;101256.53;2879709;81;21226;-57
2021/03/31 02:40:19;;;;;;;24.32;19.05;;;;;;;11.03;68.85;101257.09;2908799;81;21137;-58
2021/03/31 02:44:23;;;;;;;23.98;17.10;;;;;;;11.07;68.67;101249.26;2879449;81;21211;-59
2021/03/31 02:48:28;;;;;;;27.48;19.57;;;;;;;10.99;68.60;101247.95;2908669;81;21134;-58
2021/03/31 02:52:32;;;;;;;23.50;13.72;;;;;;;10.90;68.84;101239.74;2908888;81;21130;-57
2021/03/31 02:56:39;;;;;;;24.67;16.97;;;;;;;10.81;69.32;101234.11;2908911;81;21141;-59
2021/03/31 03:00:42;;;;;;;23.60;15.88;;;;;;;10.75;69.85;101240.31;2909098;81;21095;-59
2021/03/31 03:04:48;;;;;;;23.12;15.55;;;;;;;10.67;69.86;101243.03;2909098;81;21123;-58
2021/03/31 03:08:55;;;;;;;20.05;15.32;;;;;;;10.61;70.26;101236.80;2908769;81;21112;-59
2021/03/31 03:12:59;;;;;;;25.88;16.00;;;;;;;10.54;70.08;101237.67;2909233;81;21123;-58
2021/03/31 03:17:03;;;;;;;20.85;14.05;;;;;;;10.53;70.23;101235.11;2909204;81;21107;-59
2021/03/31 03:21:08;;;;;;;26.62;16.40;;;;;;;10.52;70.27;101234.73;2909113;81;21107;-59
2021/03/31 03:25:13;;;;;;;24.23;17.48;;;;;;;10.44;70.53;101240.56;2909024;81;21127;-59
2021/03/31 03:29:18;;;;;;;22.05;16.67;;;;;;;10.46;70.57;101239.97;2908961;80;21119;-60
2021/03/31 03:33:22;;;;;;;25.90;18.07;;;;;;;10.52;70.32;101240.05;2880294;81;21164;-59
2021/03/31 03:37:25;;;;;;;24.72;16.82;;;;;;;10.49;69.96;101240.27;2826819;84;21637;-59
2021/03/31 03:41:28;;;;;;;26.90;17.75;;;;;;;10.45;70.18;101241.42;2901653;82;21094;-58
2021/03/31 03:45:33;;;;;;;25.43;16.80;;;;;;;10.46;70.20;101225.84;2901623;81;21113;-59
2021/03/31 03:49:39;;;;;;;31.02;21.82;;;;;;;10.52;70.35;101222.76;2876969;82;21097;-59
2021/03/31 03:53:42;;;;;;;28.42;18.80;;;;;;;10.54;70.02;101219.52;2901763;82;21086;-58
2021/03/31 03:57:46;;;;;;;21.52;15.78;;;;;;;10.49;70.24;101222.97;2901647;82;21161;-58
2021/03/31 04:01:51;;;;;;;22.67;14.87;;;;;;;10.28;70.94;101226.06;2901756;82;21503;-59
2021/03/31 04:05:53;;;;;;;17.87;13.28;;;;;;;10.03;71.85;101215.71;2901668;82;21086;-59
2021/03/31 04:09:59;;;;;;;25.52;16.97;;;;;;;9.93;72.51;101218.57;2901669;82;21149;-57
2021/03/31 04:14:04;;;;;;;27.47;19.90;;;;;;;9.98;72.73;101227.09;2902204;80;21204;-57
2021/03/31 04:18:08;;;;;;;24.18;18.30;;;;;;;10.05;72.65;101223.11;2901709;82;21153;-60
2021/03/31 04:22:13;;;;;;;24.02;13.35;;;;;;;10.18;72.52;101222.29;2901993;82;21093;-60
2021/03/31 04:26:17;;;;;;;23.77;14.30;;;;;;;10.21;71.64;101226.08;2902531;82;21535;-60
2021/03/31 04:30:22;;;;;;;22.37;16.20;;;;;;;10.17;71.68;101232.09;2901777;82;21135;-60
2021/03/31 04:34:26;;;;;;;19.77;13.15;;;;;;;10.15;71.48;101230.84;2902016;81;21180;-62
2021/03/31 04:38:29;;;;;;;22.17;15.72;;;;;;;10.05;71.21;101236.86;2902164;82;21105;-61
2021/03/31 04:42:32;;;;;;;23.18;15.30;;;;;;;10.03;71.25;101238.30;2901986;82;21077;-60
2021/03/31 04:46:35;;;;;;;18.77;13.80;;;;;;;9.99;71.37;101234.11;2902053;82;21178;-60
2021/03/31 04:50:40;;;;;;;20.80;15.05;;;;;;;9.99;71.70;101238.10;2901772;82;21156;-59
2021/03/31 04:54:43;;;;;;;20.30;14.75;;;;;;;10.00;71.82;101239.80;2902008;82;21490;-60
2021/03/31 04:58:46;;;;;;;22.55;15.98;;;;;;;9.87;72.46;101234.42;2901934;82;21101;-60
2021/03/31 05:02:48;;;;;;;21.62;16.70;;;;;;;10.02;74.03;101233.08;2902028;82;21165;-61
2021/03/31 05:06:51;;;;;;;23.40;15.32;;;;;;;10.58;74.55;101236.97;2901970;82;21102;-60
2021/03/31 05:10:56;;;;;;;23.45;15.80;;;;;;;11.09;74.71;101236.69;2901908;82;21153;-61
2021/03/31 05:14:59;;;;;;;27.82;14.78;;;;;;;11.48;73.67;101228.20;2902347;82;21157;-60
2021/03/31 05:19:02;;;;;;;19.75;14.40;;;;;;;11.70;71.25;101226.20;2902391;80;21109;-61
2021/03/31 05:23:05;;;;;;;21.48;11.60;;;;;;;11.91;71.98;101234.08;2902580;82;21145;-60
2021/03/31 05:27:08;;;;;;;21.57;15.13;;;;;;;12.52;73.09;101235.41;2902449;82;21141;-60
2021/03/31 05:31:11;;;;;;;20.57;13.58;;;;;;;13.24;71.66;101241.53;2902443;82;21189;-61
2021/03/31 05:35:15;;;;;;;21.85;16.30;;;;;;;13.80;70.74;101243.87;2902568;81;21121;-60
2021/03/31 05:39:18;;;;;;;28.10;18.05;;;;;;;14.34;69.51;101239.95;2902984;82;21124;-60
2021/03/31 05:43:21;;;;;;;22.90;17.05;;;;;;;15.02;68.21;101244.66;2902801;82;21563;-61
2021/03/31 05:47:32;;;;;;;28.25;19.20;;;;;;;15.43;65.56;101238.88;2903236;82;21081;-60
2021/03/31 05:51:33;;;;;;;25.60;19.82;;;;;;;15.76;62.98;101242.27;2903108;82;21102;-61
2021/03/31 05:55:36;;;;;;;30.62;19.30;;;;;;;15.94;62.41;101234.93;2903597;82;21169;-60
2021/03/31 05:59:41;;;;;;;22.58;17.17;;;;;;;16.29;62.68;101236.23;2903383;82;21109;-61
2021/03/31 06:03:46;;;;;;;23.73;17.10;;;;;;;16.72;60.67;101227.39;2903845;82;21648;-61
2021/03/31 06:07:50;;;;;;;25.25;16.02;;;;;;;16.75;59.54;101228.96;2903408;82;21567;-62
2021/03/31 06:11:57;;;;;;;27.30;15.93;;;;;;;16.73;59.29;101225.06;2903495;82;21078;-60
2021/03/31 06:15:59;;;;;;;31.60;19.60;;;;;;;16.70;59.39;101220.84;2903535;82;21078;-61
2021/03/31 06:20:03;;;;;;;25.00;17.98;;;;;;;16.67;59.66;101227.81;2903878;82;21161;-61
2021/03/31 06:24:22;;;;;;;45.63;19.17;;;;;;;16.71;59.50;101231.08;2903719;82;21576;-60
2021/03/31 06:28:32;;;;;;;23.35;17.90;;;;;;;17.04;59.74;101230.77;2903553;82;21122;-62
2021/03/31 06:32:40;;;;;;;31.42;20.23;;;;;;;17.37;60.16;101224.52;2900445;81;21543;-62
2021/03/31 06:36:49;;;;;;;;;;;;;;;17.61;59.69;101220.44;2874688;83;21075;-62
2021/03/31 06:40:56;;;;;;;24.60;18.07;;;;;;;17.91;58.68;101223.83;2872213;83;20128;-61
2021/03/31 06:49:15;;;;;;;27.67;18.85;;;;;;;18.15;57.62;101211.65;2966978;79;22972;-61
2021/03/31 06:53:28;;;;;;;30.90;20.32;;;;;;;18.07;56.32;101211.89;2917584;81;21101;-62
2021/03/31 06:57:40;;;;;;;34.33;21.62;;;;;;;17.94;57.68;101204.68;2969833;77;28016;-61
2021/03/31 07:01:44;;;;;;;31.12;20.45;;;;;;;18.10;57.61;101200.84;2951261;80;21151;-60
2021/03/31 07:05:47;;;;;;;30.97;20.23;;;;;;;18.34;57.15;101203.41;2953166;80;21193;-61
2021/03/31 07:10:02;;;;;;;28.95;20.95;;;;;;;18.36;55.78;101206.80;2952976;80;21149;-60
2021/03/31 07:14:08;;;;;;;30.92;21.27;;;;;;;18.27;55.66;101200.97;2952904;80;21138;-61
2021/03/31 07:18:12;;;;;;;28.47;19.75;;;;;;;18.02;56.65;101196.70;2953165;80;21635;-60
2021/03/31 07:22:15;;;;;;;33.45;22.00;;;;;;;17.92;57.03;101201.30;2953231;79;21098;-61
2021/03/31 07:26:23;;;;;;;29.27;21.40;;;;;;;17.93;58.81;101192.22;2953183;79;21086;-60
2021/03/31 07:30:27;;;;;;;31.45;20.35;;;;;;;18.10;59.44;101193.25;2924097;80;21172;-62
2021/03/31 07:34:37;;;;;;;24.50;20.05;;;;;;;18.48;58.58;101189.89;2845224;83;21114;-61
2021/03/31 07:38:42;;;;;;;29.20;20.02;;;;;;;18.92;56.98;101190.88;2846051;83;21142;-62
2021/03/31 07:43:06;;;;;;;29.80;19.43;;;;;;;19.11;55.87;101189.85;2775661;84;21197;-61
2021/03/31 07:47:11;;;;;;;29.67;21.70;;;;;;;19.38;56.28;101182.55;2768864;84;21588;-60
2021/03/31 07:51:17;;;;;;;28.38;20.37;;;;;;;19.46;55.88;101178.56;2818553;83;21437;-61
2021/03/31 07:55:45;;;;;;;32.05;19.92;;;;;;;19.36;56.96;101177.83;2818137;83;21185;-60
2021/03/31 07:59:48;;;;;;;28.23;20.82;;;;;;;19.42;56.81;101179.86;2851529;83;22004;-61
2021/03/31 08:03:53;;;;;;;25.00;18.52;;;;;;;19.57;57.49;101174.72;2901772;80;21168;-63
2021/03/31 08:08:17;;;;;;;30.37;20.10;;;;;;;19.77;58.12;101160.41;2903355;80;21699;-61
2021/03/31 08:12:33;;;;;;;42.78;26.82;;;;;;;19.96;57.74;101162.02;2902232;81;21163;-61
2021/03/31 08:16:40;;;;;;;;;;;;;;;20.05;58.63;101166.92;2904983;82;21120;-63
2021/03/31 08:20:45;;;;;;;32.65;21.87;;;;;;;20.34;58.11;101168.28;2851499;83;20187;-61
2021/03/31 08:24:55;;;;;;;30.82;21.75;;;;;;;20.68;57.09;101166.39;2828281;82;21179;-59
2021/03/31 08:29:01;;;;;;;33.45;19.00;;;;;;;21.01;57.32;101165.50;2826851;84;21155;-60
2021/03/31 08:33:06;;;;;;;26.45;21.70;;;;;;;21.26;55.29;101156.30;2787719;84;21188;-60
2021/03/31 08:37:20;;;;;;;25.90;19.62;;;;;;;21.31;53.97;101153.58;2852119;83;21179;-61
2021/03/31 08:41:28;;;;;;;31.05;20.82;;;;;;;21.45;53.88;101152.84;2852423;83;21183;-60
2021/03/31 08:45:33;;;;;;;;;;;;;;;21.55;53.35;101152.62;2855237;83;21649;-60
2021/03/31 08:49:38;;;;;;;30.35;20.05;;;;;;;21.45;50.96;101143.37;2852363;83;20509;-60
2021/03/31 08:53:41;;;;;;;26.48;19.52;;;;;;;21.46;50.55;101145.55;2912816;80;21153;-60
2021/03/31 08:57:48;;;;;;;28.20;18.50;;;;;;;21.50;50.47;101145.02;2842442;81;21109;-60
2021/03/31 09:01:54;;;;;;;28.17;19.87;;;;;;;21.38;50.85;101140.52;2841417;82;21574;-60
2021/03/31 09:06:01;;;;;;;;;;;;;;;21.43;52.15;101135.94;2844101;82;21173;-60
2021/03/31 09:10:13;;;;;;;28.98;19.35;;;;;;;21.56;51.40;101128.59;2813157;84;20146;-60
2021/03/31 09:14:25;;;;;;;31.50;21.25;;;;;;;21.66;50.69;101125.16;2793839;84;21144;-59
2021/03/31 09:18:29;;;;;;;56.45;30.62;;;;;;;21.61;50.57;101126.19;2793239;84;21638;-58
2021/03/31 09:22:34;;;;;;;29.98;21.97;;;;;;;21.71;51.42;101123.77;2794208;84;21167;-60
2021/03/31 09:26:39;;;;;;;36.93;21.85;;;;;;;21.77;50.46;101123.08;2794041;85;21179;-60
2021/03/31 09:30:42;;;;;;;83.35;29.95;;;;;;;21.89;50.81;101122.14;2793838;84;21174;-59
2021/03/31 09:34:47;;;;;;;39.30;20.93;;;;;;;22.01;51.38;101113.94;2793976;84;21219;-60
2021/03/31 09:38:56;;;;;;;28.20;18.25;;;;;;;22.11;49.30;101111.81;2793524;83;21194;-60
2021/03/31 09:43:04;;;;;;;36.05;22.20;;;;;;;22.26;50.06;101104.23;2812406;82;21161;-60
2021/03/31 09:47:07;;;;;;;35.17;22.15;;;;;;;22.39;50.48;101111.20;2890737;82;21153;-59
2021/03/31 09:51:13;;;;;;;32.15;21.37;;;;;;;22.43;49.86;101110.86;2867292;82;21142;-59
2021/03/31 09:55:16;;;;;;;;;;;;;;;22.44;49.29;101103.06;2847243;81;21160;-60
2021/03/31 09:59:21;;;;;;;37.98;21.87;;;;;;;22.59;50.14;101101.75;2857111;83;20157;-60
2021/03/31 10:03:26;;;;;;;31.42;21.75;;;;;;;22.64;49.34;101103.38;2899682;80;21141;-59
2021/03/31 10:07:30;;;;;;;34.15;22.65;;;;;;;22.70;49.46;101096.38;2951133;80;21155;-60
2021/03/31 10:11:36;;;;;;;34.60;23.83;;;;;;;22.77;48.28;101097.30;2950192;80;21102;-59
2021/03/31 10:15:43;;;;;;;32.35;21.23;;;;;;;22.89;47.81;101088.17;2951138;80;21094;-60
2021/03/31 10:19:47;;;;;;;34.95;20.97;;;;;;;22.86;48.87;101082.63;2950747;80;21157;-60
2021/03/31 10:23:50;;;;;;;32.95;21.65;;;;;;;22.97;49.29;101074.00;2941457;80;21408;-61
2021/03/31 10:27:58;;;;;;;32.93;21.90;;;;;;;23.04;48.86;101074.62;2933111;81;21134;-59
2021/03/31 10:32:07;;;;;;;32.25;22.32;;;;;;;23.13;48.88;101075.36;2911953;80;21184;-60
2021/03/31 10:41:35;;;;;;;31.80;21.33;;;;;;;23.22;46.37;101056.05;2975047;77;22953;-60
2021/03/31 10:49:49;;;;;;;37.08;22.10;;;;;;;23.17;47.01;101049.52;2845992;83;21150;-60
2021/03/31 10:54:05;;;;;;;33.00;21.23;;;;;;;23.30;47.14;101044.78;2862480;82;21674;-60
2021/03/31 10:58:03;;;;;;;34.40;21.20;;;;;;;23.39;46.50;101034.14;2923096;81;21560;-60
2021/03/31 11:02:08;;;;;;;33.73;20.20;;;;;;;23.47;46.55;101029.94;2873710;83;21149;-60
2021/03/31 11:06:11;;;;;;;31.65;19.80;;;;;;;23.54;45.21;101036.26;2923712;81;21169;-60
2021/03/31 11:10:14;;;;;;;34.63;18.95;;;;;;;23.59;44.40;101028.89;2923028;81;21149;-59
2021/03/31 11:14:19;;;;;;;25.87;19.23;;;;;;;23.53;42.74;101028.33;2874013;83;21153;-61
2021/03/31 11:18:39;;;;;;;28.17;18.45;;;;;;;23.56;42.61;101027.08;2831095;81;21129;-60
2021/03/31 11:26:53;;;;;;;29.63;21.40;;;;;;;23.71;43.09;101006.13;2904488;82;22200;-60
2021/03/31 11:30:59;;;;;;;34.50;20.20;;;;;;;23.73;42.50;101006.77;2904708;82;21149;-60
2021/03/31 11:35:06;;;;;;;33.73;20.43;;;;;;;23.87;42.08;100997.38;2903313;82;21109;-61
2021/03/31 11:39:09;;;;;;;;;;;;;;;24.05;41.71;100981.96;2903452;82;21157;-60
2021/03/31 11:43:15;;;;;;;34.85;19.50;;;;;;;24.11;42.30;100982.55;2897925;82;20126;-60
2021/03/31 11:47:18;;;;;;;34.98;20.70;;;;;;;24.10;42.01;100983.59;2897930;81;21109;-60
2021/03/31 11:51:21;;;;;;;30.10;19.10;;;;;;;24.10;41.18;100974.90;2897617;82;21105;-61
2021/03/31 11:55:25;;;;;;;27.55;19.75;;;;;;;24.09;42.55;100969.14;2896902;82;21474;-62
2021/03/31 11:59:29;;;;;;;29.80;19.60;;;;;;;24.20;42.09;100965.03;2896530;82;21153;-61
2021/03/31 12:03:33;;;;;;;33.67;20.97;;;;;;;24.25;41.40;100957.64;2897119;82;21737;-61
2021/03/31 12:07:36;;;;;;;30.08;22.37;;;;;;;24.35;42.62;100949.13;2897330;82;21113;-61
2021/03/31 12:11:41;;;;;;;32.37;20.03;;;;;;;24.46;41.15;100944.98;2867524;83;21796;-61
2021/03/31 12:15:44;;;;;;;32.13;22.67;;;;;;;24.50;41.21;100938.09;2896694;82;21599;-61
2021/03/31 12:19:47;;;;;;;30.40;20.82;;;;;;;24.51;40.27;100932.98;2866858;83;21152;-61
2021/03/31 12:23:50;;;;;;;30.95;21.60;;;;;;;24.45;40.71;100925.64;2867058;83;21196;-61
2021/03/31 12:27:57;;;;;;;44.13;23.42;;;;;;;24.47;41.46;100918.12;2897230;82;21153;-66
2021/03/31 12:31:59;;;;;;;33.50;22.35;;;;;;;24.53;40.34;100909.14;2866801;83;21171;-66
2021/03/31 12:36:04;;;;;;;31.48;22.15;;;;;;;24.56;40.47;100897.02;2816178;83;21195;-65
2021/03/31 12:40:11;;;;;;;32.00;22.93;;;;;;;24.57;40.47;100894.63;2901242;81;21074;-67
2021/03/31 12:44:15;;;;;;;29.92;21.07;;;;;;;24.61;40.48;100887.22;2903756;81;21459;-65
2021/03/31 12:48:18;;;;;;;33.15;21.80;;;;;;;24.72;41.45;100884.93;2903764;82;21161;-65
2021/03/31 12:56:51;;;;;;;36.08;20.75;;;;;;;25.00;39.98;100873.10;2999817;77;23017;-65
2021/03/31 13:00:59;;;;;;;30.05;20.17;;;;;;;25.01;41.13;100867.44;2956020;80;21078;-65
2021/03/31 13:05:02;;;;;;;35.17;21.73;;;;;;;25.18;42.73;100866.52;2951346;80;21101;-65
2021/03/31 13:09:07;;;;;;;28.27;18.80;;;;;;;25.31;41.37;100863.46;2951827;80;21106;-66
2021/03/31 13:21:58;;;;;;;32.20;21.48;;;;;;;25.38;40.02;100853.42;2999850;77;22994;-68
2021/03/31 13:31:02;;;;;;;27.55;19.07;;;;;;;25.27;39.58;100828.19;2882131;81;21987;-67
2021/03/31 13:35:13;;;;;;;26.73;18.48;;;;;;;25.31;37.19;100820.76;2874859;82;21106;-69
2021/03/31 13:39:37;;;;;;;30.40;18.40;;;;;;;25.32;38.32;100817.50;2807554;84;21153;-66
2021/03/31 13:43:38;;;;;;;25.48;17.27;;;;;;;25.36;36.77;100804.61;2834388;82;21133;-69
2021/03/31 13:52:07;;;;;;;24.60;17.05;;;;;;;25.49;36.56;100790.16;2831925;82;21119;-66
2021/03/31 13:56:26;;;;;;;25.55;15.93;;;;;;;25.60;37.08;100791.94;2830832;84;21804;-67
2021/03/31 14:00:27;;;;;;;27.45;15.98;;;;;;;25.63;37.66;100782.80;2828494;82;21164;-67
2021/03/31 14:04:30;;;;;;;24.47;17.20;;;;;;;25.71;38.13;100773.55;2792103;84;21175;-68
2021/03/31 14:08:34;;;;;;;34.48;17.95;;;;;;;25.80;39.14;100761.89;2794924;84;21157;-68
2021/03/31 14:12:39;;;;;;;25.02;16.73;;;;;;;25.86;37.94;100749.30;2844564;82;21145;-67
2021/03/31 14:16:54;;;;;;;22.22;14.87;;;;;;;25.88;37.08;100743.10;2856524;82;21152;-67
2021/03/31 14:20:50;;;;;;;26.15;17.80;;;;;;;25.87;38.60;100742.80;2900954;80;21611;-67
2021/03/31 14:24:55;;;;;;;29.75;16.93;;;;;;;25.95;37.85;100737.11;2888965;82;21140;-67
2021/03/31 14:29:00;;;;;;;35.20;18.55;;;;;;;26.00;39.09;100731.84;2903566;80;21136;-67
2021/03/31 14:33:05;;;;;;;29.23;16.73;;;;;;;26.13;38.79;100723.25;2905367;82;21165;-67
2021/03/31 14:37:12;;;;;;;26.30;15.72;;;;;;;26.18;38.92;100722.13;2902079;82;21185;-67
2021/03/31 14:41:17;;;;;;;18.27;14.33;;;;;;;26.27;38.60;100722.16;2901645;82;21073;-67
2021/03/31 14:45:22;;;;;;;24.20;14.68;;;;;;;26.34;39.16;100713.94;2902140;82;21116;-67
2021/03/31 14:49:27;;;;;;;22.35;14.85;;;;;;;26.45;39.32;100708.30;2906063;82;21546;-67
2021/03/31 15:02:14;;;;;;;43.92;14.10;;;;;;;26.50;36.81;100695.67;2905312;82;21137;-68
2021/03/31 15:06:17;;;;;;;25.17;14.68;;;;;;;26.40;37.58;100689.05;2906557;82;21112;-66
2021/03/31 15:10:21;;;;;;;24.32;14.80;;;;;;;26.27;37.44;100681.27;2906665;82;21081;-67
2021/03/31 15:14:27;;;;;;;;;;;;;;;26.27;38.09;100679.08;2903644;81;21132;-69
2021/03/31 15:18:32;;;;;;;215.30;88.90;;;;;;;26.19;38.23;100672.00;2855073;83;20219;-68
2021/03/31 15:22:45;;;;;;;;;;;;;;;26.12;37.84;100668.44;2864838;83;21164;-67
2021/03/31 15:26:44;;;;;;;74.32;36.70;;;;;;;25.94;37.66;100669.50;2890721;82;20137;-65
2021/03/31 15:30:49;;;;;;;60.38;28.62;;;;;;;25.58;39.13;100663.31;2846258;82;21146;-67
2021/03/31 15:34:53;;;;;;;27.50;18.20;;;;;;;25.30;40.40;100659.83;2806187;83;21152;-66
2021/03/31 15:38:56;;;;;;;65.60;28.65;;;;;;;25.13;41.20;100656.72;2853615;83;21121;-66
2021/03/31 15:43:00;;;;;;;29.32;17.95;;;;;;;25.12;41.50;100648.78;2856788;82;21093;-67
2021/03/31 15:47:12;;;;;;;29.83;17.43;;;;;;;25.09;41.66;100644.59;2904996;82;21102;-66
2021/03/31 15:51:13;;;;;;;79.70;33.13;;;;;;;25.05;41.66;100638.73;2904173;82;21121;-65
2021/03/31 15:55:18;;;;;;;31.68;18.75;;;;;;;24.98;41.43;100639.28;2904780;82;21125;-67
2021/03/31 15:59:21;;;;;;;29.87;18.60;;;;;;;24.95;41.91;100637.81;2904468;80;21145;-68
2021/03/31 16:03:28;;;;;;;34.60;23.30;;;;;;;24.88;41.47;100637.01;2894006;80;21136;-67
2021/03/31 16:07:33;;;;;;;37.08;21.73;;;;;;;24.86;41.75;100632.30;2904230;82;21125;-67
2021/03/31 16:11:36;;;;;;;30.57;19.87;;;;;;;24.80;42.52;100635.34;2891991;80;21166;-66
2021/03/31 16:15:42;;;;;;;28.17;19.20;;;;;;;24.65;42.68;100629.27;2858357;81;21132;-65
2021/03/31 16:19:47;;;;;;;29.18;20.62;;;;;;;24.31;43.64;100624.39;2889713;82;21635;-67
2021/03/31 16:23:51;;;;;;;46.35;27.50;;;;;;;23.98;45.09;100629.23;2887087;80;21145;-66
2021/03/31 16:32:09;;;;;;;53.13;26.13;;;;;;;23.33;46.89;100623.71;2878910;81;21460;-66
2021/03/31 16:36:14;;;;;;;65.25;32.55;;;;;;;23.06;47.16;100615.42;2867753;83;21104;-65
2021/03/31 16:40:16;;;;;;;52.95;25.68;;;;;;;22.81;47.30;100605.07;2863047;82;21167;-66
2021/03/31 16:44:20;;;;;;;49.73;25.15;;;;;;;22.61;47.43;100607.13;2823007;84;21140;-66
2021/03/31 16:48:23;;;;;;;39.50;24.70;;;;;;;22.39;47.98;100607.13;2822485;84;21605;-66
2021/03/31 16:52:26;;;;;;;40.92;27.13;;;;;;;22.21;48.37;100602.19;2822992;84;21128;-66
2021/03/31 16:56:29;;;;;;;44.98;28.90;;;;;;;22.01;48.63;100597.97;2793885;84;21144;-66
2021/03/31 17:00:33;;;;;;;57.53;34.70;;;;;;;21.84;49.04;100596.02;2794872;84;21507;-66
2021/03/31 17:04:35;;;;;;;61.88;37.17;;;;;;;21.63;48.93;100589.52;2822621;83;21136;-65
2021/03/31 17:08:38;;;;;;;73.30;38.95;;;;;;;21.43;48.57;100583.90;2822405;84;21120;-66
2021/03/31 17:12:41;;;;;;;58.30;33.30;;;;;;;21.25;48.04;100577.03;2871380;82;22459;-65
2021/03/31 17:16:45;;;;;;;60.50;30.23;;;;;;;21.09;48.26;100575.36;2873841;82;21168;-64
2021/03/31 17:20:49;;;;;;;57.05;32.42;;;;;;;20.92;48.66;100565.27;2865158;82;21175;-65
2021/03/31 17:24:52;;;;;;;164.70;69.45;;;;;;;20.77;48.34;100563.04;2783716;84;21190;-64
2021/03/31 17:28:55;;;;;;;67.62;42.40;;;;;;;20.64;48.71;100562.34;2783917;85;21134;-66
2021/03/31 17:32:58;;;;;;;69.50;41.50;;;;;;;20.52;48.94;100559.27;2784243;85;21161;-65
2021/03/31 17:37:01;;;;;;;49.45;35.80;;;;;;;20.42;48.74;100560.88;2783386;85;21178;-65
2021/03/31 17:41:05;;;;;;;50.00;31.85;;;;;;;20.29;49.30;100562.87;2792048;84;21162;-65
2021/03/31 17:45:10;;;;;;;52.73;34.15;;;;;;;20.13;49.62;100557.08;2806177;84;21589;-66
2021/03/31 17:49:12;;;;;;;84.40;51.40;;;;;;;20.01;50.08;100571.53;2806633;83;21195;-64
2021/03/31 17:53:18;;;;;;;70.55;47.70;;;;;;;19.81;50.94;100564.41;2806334;84;21186;-64
2021/03/31 17:57:20;;;;;;;71.15;47.50;;;;;;;19.62;51.32;100562.52;2805284;83;21669;-65
2021/03/31 18:01:22;;;;;;;100.90;62.48;;;;;;;19.47;51.17;100571.89;2806209;84;21202;-63
2021/03/31 18:05:26;;;;;;;126.25;73.02;;;;;;;19.39;51.54;100567.88;2806647;83;21186;-63
2021/03/31 18:09:30;;;;;;;145.07;82.62;;;;;;;19.31;51.87;100562.53;2806606;84;21138;-64
2021/03/31 18:13:33;;;;;;;127.72;73.12;;;;;;;19.22;52.13;100563.09;2759990;84;21559;-64
2021/03/31 18:17:36;;;;;;;102.12;60.25;;;;;;;19.11;52.51;100558.92;2787324;83;21177;-64
2021/03/31 18:21:39;;;;;;;74.75;46.65;;;;;;;18.98;52.78;100561.66;2931429;80;21182;-64
2021/03/31 18:25:43;;;;;;;76.12;50.23;;;;;;;18.82;53.45;100550.91;2905865;81;21185;-65
2021/03/31 18:29:56;;;;;;;190.53;130.12;;;;;;;18.65;54.11;100549.60;2931820;81;21185;-64
2021/03/31 18:33:59;;;;;;;408.60;256.10;;;;;;;18.43;55.52;100554.38;2905660;82;21141;-65
2021/03/31 18:38:01;;;;;;;220.67;124.20;;;;;;;18.10;56.88;100548.03;2931619;81;21122;-64
2021/03/31 18:42:23;;;;;;;200.45;118.67;;;;;;;17.84;57.76;100547.64;2883881;82;21115;-65
2021/03/31 18:46:18;;;;;;;149.47;87.15;;;;;;;17.70;57.57;100549.67;2869701;82;21116;-65
2021/03/31 18:50:23;;;;;;;118.00;74.67;;;;;;;17.62;58.56;100545.61;2936065;81;21141;-64
2021/03/31 18:54:25;;;;;;;166.50;102.65;;;;;;;17.47;58.80;100542.21;2910272;81;21522;-64
2021/03/31 18:58:28;;;;;;;109.42;66.85;;;;;;;17.34;58.46;100544.55;2935707;81;21149;-65
2021/03/31 19:02:31;;;;;;;101.00;60.50;;;;;;;17.26;60.18;100546.19;2910518;81;21165;-65
2021/03/31 19:06:39;;;;;;;94.47;53.45;;;;;;;17.20;60.71;100550.89;2936725;81;21118;-65
2021/03/31 19:15:06;;;;;;;89.77;62.67;;;;;;;16.96;61.14;100553.80;2904957;81;21128;-64
2021/03/31 19:19:10;;;;;;;101.00;59.50;;;;;;;16.83;61.17;100550.22;2905449;82;21164;-65
2021/03/31 19:23:15;;;;;;;73.02;51.02;;;;;;;16.74;61.35;100551.16;2905221;82;21161;-65
2021/03/31 19:27:23;;;;;;;76.30;50.00;;;;;;;16.60;62.27;100541.86;2905127;82;21165;-65
2021/03/31 19:31:26;;;;;;;85.75;51.25;;;;;;;16.48;62.42;100543.12;2907159;81;21149;-64
2021/03/31 19:35:31;;;;;;;91.20;57.15;;;;;;;16.34;62.40;100538.69;2896640;81;21176;-63
2021/03/31 19:39:35;;;;;;;85.17;57.27;;;;;;;16.24;62.54;100529.40;2896659;82;21177;-64